sensor_id;sensor_type;location;lat;lon;timestamp;P1;durP1;ratioP1;P2;durP2;ratioP2
68910;SDS011;55953;51.650;-0.522;2023-08-06T00:01:43;5.30;;;2.20;;
68910;SDS011;55953;51.650;-0.522;2023-08-06T00:04:11;4.90;;;1.80;;
68910;SDS011;55953;51.650;-0.522;2023-08-06T00:06:39;5.50;;;2.20;;
68910;SDS011;55953;51.650;-0.522;2023-08-06T00:09:07;4.70;;;2.10;;
68910;SDS011;55953;51.650;-0.522;2023-08-06T00:11:35;6.60;;;2.30;;
68910;SDS011;55953;51.650;-0.522;2023-08-06T00:14:02;5.40;;;2.30;;
68910;SDS011;55953;51.650;-0.522;2023-08-06T00:16:30;6.30;;;2.20;;
68910;SDS011;55953;51.650;-0.522;2023-08-06T00:18:58;7.50;;;2.80;;
68910;SDS011;55953;51.650;-0.522;2023-08-06T00:21:26;5.40;;;2.70;;
68910;SDS011;55953;51.650;-0.522;2023-08-06T00:23:54;5.50;;;2.50;;
68910;SDS011;55953;51.650;-0.522;2023-08-06T00:26:21;5.40;;;2.50;;
68910;SDS011;55953;51.650;-0.522;2023-08-06T00:28:49;6.90;;;2.90;;
68910;SDS011;55953;51.650;-0.522;2023-08-06T00:31:17;8.20;;;2.70;;
68910;SDS011;55953;51.650;-0.522;2023-08-06T00:33:45;4.20;;;2.20;;
68910;SDS011;55953;51.650;-0.522;2023-08-06T00:36:12;7.10;;;2.40;;
68910;SDS011;55953;51.650;-0.522;2023-08-06T00:38:40;5.40;;;2.10;;
68910;SDS011;55953;51.650;-0.522;2023-08-06T00:41:09;5.20;;;2.20;;
68910;SDS011;55953;51.650;-0.522;2023-08-06T00:43:37;6.20;;;2.50;;
68910;SDS011;55953;51.650;-0.522;2023-08-06T00:46:05;4.80;;;2.00;;
68910;SDS011;55953;51.650;-0.522;2023-08-06T00:48:33;8.70;;;2.60;;
68910;SDS011;55953;51.650;-0.522;2023-08-06T00:51:01;4.80;;;2.20;;
68910;SDS011;55953;51.650;-0.522;2023-08-06T00:53:29;5.40;;;2.20;;
68910;SDS011;55953;51.650;-0.522;2023-08-06T00:55:57;5.70;;;2.30;;
68910;SDS011;55953;51.650;-0.522;2023-08-06T00:58:26;6.60;;;1.80;;
68910;SDS011;55953;51.650;-0.522;2023-08-06T01:00:53;6.10;;;2.40;;
68910;SDS011;55953;51.650;-0.522;2023-08-06T01:03:21;7.00;;;2.40;;
68910;SDS011;55953;51.650;-0.522;2023-08-06T01:05:50;6.80;;;2.10;;
68910;SDS011;55953;51.650;-0.522;2023-08-06T01:08:28;11.20;;;2.30;;
68910;SDS011;55953;51.650;-0.522;2023-08-06T01:11:33;7.00;;;1.90;;
68910;SDS011;55953;51.650;-0.522;2023-08-06T01:14:37;4.00;;;2.00;;
68910;SDS011;55953;51.650;-0.522;2023-08-06T01:17:14;4.50;;;2.00;;
68910;SDS011;55953;51.650;-0.522;2023-08-06T01:19:42;6.90;;;1.80;;
68910;SDS011;55953;51.650;-0.522;2023-08-06T01:22:09;4.10;;;1.90;;
68910;SDS011;55953;51.650;-0.522;2023-08-06T01:24:37;5.10;;;2.00;;
68910;SDS011;55953;51.650;-0.522;2023-08-06T01:27:11;4.60;;;2.10;;
68910;SDS011;55953;51.650;-0.522;2023-08-06T01:29:48;5.70;;;1.70;;
68910;SDS011;55953;51.650;-0.522;2023-08-06T01:32:23;5.60;;;2.00;;
68910;SDS011;55953;51.650;-0.522;2023-08-06T01:34:54;4.20;;;1.80;;
68910;SDS011;55953;51.650;-0.522;2023-08-06T01:37:23;5.00;;;1.90;;
68910;SDS011;55953;51.650;-0.522;2023-08-06T01:39:51;3.80;;;1.80;;
68910;SDS011;55953;51.650;-0.522;2023-08-06T01:42:18;4.30;;;1.70;;
68910;SDS011;55953;51.650;-0.522;2023-08-06T01:44:47;4.90;;;2.00;;
68910;SDS011;55953;51.650;-0.522;2023-08-06T01:47:15;3.70;;;2.10;;
68910;SDS011;55953;51.650;-0.522;2023-08-06T01:49:42;4.80;;;2.20;;
68910;SDS011;55953;51.650;-0.522;2023-08-06T01:52:10;4.40;;;2.20;;
68910;SDS011;55953;51.650;-0.522;2023-08-06T01:54:38;3.90;;;2.00;;
68910;SDS011;55953;51.650;-0.522;2023-08-06T01:57:06;7.20;;;2.60;;
68910;SDS011;55953;51.650;-0.522;2023-08-06T01:59:34;5.00;;;2.40;;
68910;SDS011;55953;51.650;-0.522;2023-08-06T02:02:03;4.70;;;2.30;;
68910;SDS011;55953;51.650;-0.522;2023-08-06T02:04:31;4.80;;;2.30;;
68910;SDS011;55953;51.650;-0.522;2023-08-06T02:06:59;6.40;;;2.30;;
68910;SDS011;55953;51.650;-0.522;2023-08-06T02:09:27;4.40;;;2.10;;
68910;SDS011;55953;51.650;-0.522;2023-08-06T02:11:55;5.40;;;1.90;;
68910;SDS011;55953;51.650;-0.522;2023-08-06T02:14:22;6.00;;;2.60;;
68910;SDS011;55953;51.650;-0.522;2023-08-06T02:16:50;4.70;;;2.40;;
68910;SDS011;55953;51.650;-0.522;2023-08-06T02:19:18;6.10;;;2.00;;
68910;SDS011;55953;51.650;-0.522;2023-08-06T02:21:46;6.50;;;2.40;;
68910;SDS011;55953;51.650;-0.522;2023-08-06T02:24:15;5.60;;;2.20;;
68910;SDS011;55953;51.650;-0.522;2023-08-06T02:26:43;6.00;;;1.90;;
68910;SDS011;55953;51.650;-0.522;2023-08-06T02:29:12;8.00;;;2.50;;
68910;SDS011;55953;51.650;-0.522;2023-08-06T02:31:42;7.60;;;2.40;;
68910;SDS011;55953;51.650;-0.522;2023-08-06T02:34:10;9.00;;;2.40;;
68910;SDS011;55953;51.650;-0.522;2023-08-06T02:36:38;4.40;;;2.30;;
68910;SDS011;55953;51.650;-0.522;2023-08-06T02:39:06;6.90;;;2.40;;
68910;SDS011;55953;51.650;-0.522;2023-08-06T02:41:35;4.80;;;2.20;;
68910;SDS011;55953;51.650;-0.522;2023-08-06T02:44:03;7.70;;;2.00;;
68910;SDS011;55953;51.650;-0.522;2023-08-06T02:46:31;5.00;;;1.90;;
68910;SDS011;55953;51.650;-0.522;2023-08-06T02:48:59;5.40;;;2.10;;
68910;SDS011;55953;51.650;-0.522;2023-08-06T02:51:26;7.20;;;2.30;;
68910;SDS011;55953;51.650;-0.522;2023-08-06T02:53:54;5.70;;;2.20;;
68910;SDS011;55953;51.650;-0.522;2023-08-06T02:56:22;4.60;;;2.20;;
68910;SDS011;55953;51.650;-0.522;2023-08-06T02:58:57;6.40;;;2.30;;
68910;SDS011;55953;51.650;-0.522;2023-08-06T03:01:34;4.90;;;2.00;;
68910;SDS011;55953;51.650;-0.522;2023-08-06T03:04:07;4.50;;;2.10;;
68910;SDS011;55953;51.650;-0.522;2023-08-06T03:09:06;5.10;;;2.20;;
68910;SDS011;55953;51.650;-0.522;2023-08-06T03:11:34;5.10;;;2.20;;
68910;SDS011;55953;51.650;-0.522;2023-08-06T03:14:09;4.80;;;2.30;;
68910;SDS011;55953;51.650;-0.522;2023-08-06T03:16:39;4.40;;;2.10;;
68910;SDS011;55953;51.650;-0.522;2023-08-06T03:19:08;6.70;;;2.70;;
68910;SDS011;55953;51.650;-0.522;2023-08-06T03:21:35;4.70;;;2.30;;
68910;SDS011;55953;51.650;-0.522;2023-08-06T03:24:04;5.90;;;2.30;;
68910;SDS011;55953;51.650;-0.522;2023-08-06T03:26:32;6.40;;;2.10;;
68910;SDS011;55953;51.650;-0.522;2023-08-06T03:29:01;7.40;;;2.60;;
68910;SDS011;55953;51.650;-0.522;2023-08-06T03:31:30;6.70;;;2.10;;
68910;SDS011;55953;51.650;-0.522;2023-08-06T03:33:57;5.90;;;2.10;;
68910;SDS011;55953;51.650;-0.522;2023-08-06T03:36:26;5.70;;;2.40;;
68910;SDS011;55953;51.650;-0.522;2023-08-06T03:38:55;4.40;;;2.40;;
68910;SDS011;55953;51.650;-0.522;2023-08-06T03:41:23;6.80;;;2.40;;
68910;SDS011;55953;51.650;-0.522;2023-08-06T03:43:51;5.60;;;2.10;;
68910;SDS011;55953;51.650;-0.522;2023-08-06T03:46:23;4.50;;;2.40;;
68910;SDS011;55953;51.650;-0.522;2023-08-06T03:48:51;6.20;;;2.30;;
68910;SDS011;55953;51.650;-0.522;2023-08-06T03:51:19;6.40;;;2.70;;
68910;SDS011;55953;51.650;-0.522;2023-08-06T03:53:47;5.50;;;2.40;;
68910;SDS011;55953;51.650;-0.522;2023-08-06T03:56:15;6.00;;;2.20;;
68910;SDS011;55953;51.650;-0.522;2023-08-06T03:58:43;5.10;;;2.30;;
68910;SDS011;55953;51.650;-0.522;2023-08-06T04:01:11;5.10;;;2.30;;
68910;SDS011;55953;51.650;-0.522;2023-08-06T04:03:43;7.10;;;2.50;;
68910;SDS011;55953;51.650;-0.522;2023-08-06T04:06:11;6.40;;;2.70;;
68910;SDS011;55953;51.650;-0.522;2023-08-06T04:08:39;8.40;;;2.80;;
68910;SDS011;55953;51.650;-0.522;2023-08-06T04:11:07;5.10;;;2.40;;
68910;SDS011;55953;51.650;-0.522;2023-08-06T04:13:35;6.50;;;2.30;;
68910;SDS011;55953;51.650;-0.522;2023-08-06T04:16:03;5.80;;;2.90;;
68910;SDS011;55953;51.650;-0.522;2023-08-06T04:18:32;6.80;;;2.60;;
68910;SDS011;55953;51.650;-0.522;2023-08-06T04:21:01;5.40;;;2.60;;
68910;SDS011;55953;51.650;-0.522;2023-08-06T04:23:29;7.90;;;2.80;;
68910;SDS011;55953;51.650;-0.522;2023-08-06T04:26:00;6.70;;;2.50;;
68910;SDS011;55953;51.650;-0.522;2023-08-06T04:28:31;6.60;;;3.00;;
68910;SDS011;55953;51.650;-0.522;2023-08-06T04:30:59;5.60;;;3.00;;
68910;SDS011;55953;51.650;-0.522;2023-08-06T04:33:27;5.20;;;2.80;;
68910;SDS011;55953;51.650;-0.522;2023-08-06T04:35:57;6.30;;;2.80;;
68910;SDS011;55953;51.650;-0.522;2023-08-06T04:38:26;7.10;;;2.70;;
68910;SDS011;55953;51.650;-0.522;2023-08-06T04:40:54;5.80;;;2.70;;
68910;SDS011;55953;51.650;-0.522;2023-08-06T04:43:22;6.60;;;2.70;;
68910;SDS011;55953;51.650;-0.522;2023-08-06T04:45:53;6.20;;;2.70;;
68910;SDS011;55953;51.650;-0.522;2023-08-06T04:48:22;5.00;;;2.90;;
68910;SDS011;55953;51.650;-0.522;2023-08-06T04:50:50;6.30;;;3.10;;
68910;SDS011;55953;51.650;-0.522;2023-08-06T04:53:18;6.50;;;2.80;;
68910;SDS011;55953;51.650;-0.522;2023-08-06T04:55:46;7.00;;;3.10;;
68910;SDS011;55953;51.650;-0.522;2023-08-06T04:58:14;5.40;;;2.40;;
68910;SDS011;55953;51.650;-0.522;2023-08-06T05:00:42;5.90;;;2.30;;
68910;SDS011;55953;51.650;-0.522;2023-08-06T05:03:10;5.40;;;2.40;;
68910;SDS011;55953;51.650;-0.522;2023-08-06T05:05:40;6.00;;;3.20;;
68910;SDS011;55953;51.650;-0.522;2023-08-06T05:08:14;6.10;;;2.30;;
68910;SDS011;55953;51.650;-0.522;2023-08-06T05:10:46;4.80;;;2.20;;
68910;SDS011;55953;51.650;-0.522;2023-08-06T05:13:13;5.70;;;2.40;;
68910;SDS011;55953;51.650;-0.522;2023-08-06T05:15:42;5.80;;;2.20;;
68910;SDS011;55953;51.650;-0.522;2023-08-06T05:18:10;4.90;;;2.20;;
68910;SDS011;55953;51.650;-0.522;2023-08-06T05:20:40;5.80;;;2.80;;
68910;SDS011;55953;51.650;-0.522;2023-08-06T05:23:09;5.90;;;2.60;;
68910;SDS011;55953;51.650;-0.522;2023-08-06T05:25:37;7.20;;;2.50;;
68910;SDS011;55953;51.650;-0.522;2023-08-06T05:28:05;7.10;;;2.40;;
68910;SDS011;55953;51.650;-0.522;2023-08-06T05:30:33;5.20;;;2.50;;
68910;SDS011;55953;51.650;-0.522;2023-08-06T05:33:04;5.60;;;2.20;;
68910;SDS011;55953;51.650;-0.522;2023-08-06T05:35:32;5.50;;;2.20;;
68910;SDS011;55953;51.650;-0.522;2023-08-06T05:38:00;4.90;;;2.50;;
68910;SDS011;55953;51.650;-0.522;2023-08-06T05:40:28;5.60;;;2.30;;
68910;SDS011;55953;51.650;-0.522;2023-08-06T05:42:55;4.20;;;2.30;;
68910;SDS011;55953;51.650;-0.522;2023-08-06T05:45:23;9.80;;;2.60;;
68910;SDS011;55953;51.650;-0.522;2023-08-06T05:47:51;3.90;;;2.10;;
68910;SDS011;55953;51.650;-0.522;2023-08-06T05:50:22;4.40;;;2.40;;
68910;SDS011;55953;51.650;-0.522;2023-08-06T05:52:50;5.00;;;2.10;;
68910;SDS011;55953;51.650;-0.522;2023-08-06T05:55:19;5.20;;;2.10;;
68910;SDS011;55953;51.650;-0.522;2023-08-06T05:57:48;5.70;;;2.60;;
68910;SDS011;55953;51.650;-0.522;2023-08-06T06:00:15;5.40;;;2.40;;
68910;SDS011;55953;51.650;-0.522;2023-08-06T06:02:45;5.30;;;2.50;;
68910;SDS011;55953;51.650;-0.522;2023-08-06T06:05:13;5.20;;;2.10;;
68910;SDS011;55953;51.650;-0.522;2023-08-06T06:07:41;7.50;;;2.60;;
68910;SDS011;55953;51.650;-0.522;2023-08-06T06:10:09;5.90;;;2.30;;
68910;SDS011;55953;51.650;-0.522;2023-08-06T06:12:40;5.10;;;2.60;;
68910;SDS011;55953;51.650;-0.522;2023-08-06T06:15:09;5.60;;;2.30;;
68910;SDS011;55953;51.650;-0.522;2023-08-06T06:17:39;5.30;;;2.40;;
68910;SDS011;55953;51.650;-0.522;2023-08-06T06:20:07;4.50;;;2.30;;
68910;SDS011;55953;51.650;-0.522;2023-08-06T06:22:35;4.80;;;2.10;;
68910;SDS011;55953;51.650;-0.522;2023-08-06T06:25:03;5.40;;;2.30;;
68910;SDS011;55953;51.650;-0.522;2023-08-06T06:27:32;5.60;;;2.20;;
68910;SDS011;55953;51.650;-0.522;2023-08-06T06:29:59;4.80;;;2.20;;
68910;SDS011;55953;51.650;-0.522;2023-08-06T06:32:27;4.50;;;2.20;;
68910;SDS011;55953;51.650;-0.522;2023-08-06T06:34:55;4.60;;;2.00;;
68910;SDS011;55953;51.650;-0.522;2023-08-06T06:37:23;6.00;;;2.30;;
68910;SDS011;55953;51.650;-0.522;2023-08-06T06:39:50;4.30;;;2.20;;
68910;SDS011;55953;51.650;-0.522;2023-08-06T06:42:18;5.80;;;2.30;;
68910;SDS011;55953;51.650;-0.522;2023-08-06T06:44:46;5.30;;;2.60;;
68910;SDS011;55953;51.650;-0.522;2023-08-06T06:47:14;5.00;;;2.10;;
68910;SDS011;55953;51.650;-0.522;2023-08-06T06:49:42;4.80;;;2.00;;
68910;SDS011;55953;51.650;-0.522;2023-08-06T06:52:10;4.20;;;1.90;;
68910;SDS011;55953;51.650;-0.522;2023-08-06T06:54:38;6.70;;;2.50;;
68910;SDS011;55953;51.650;-0.522;2023-08-06T06:57:06;4.30;;;2.00;;
68910;SDS011;55953;51.650;-0.522;2023-08-06T06:59:34;5.20;;;2.20;;
68910;SDS011;55953;51.650;-0.522;2023-08-06T07:02:02;8.00;;;2.70;;
68910;SDS011;55953;51.650;-0.522;2023-08-06T07:04:30;6.10;;;2.40;;
68910;SDS011;55953;51.650;-0.522;2023-08-06T07:06:57;4.10;;;2.00;;
68910;SDS011;55953;51.650;-0.522;2023-08-06T07:09:26;6.30;;;2.30;;
68910;SDS011;55953;51.650;-0.522;2023-08-06T07:11:53;5.40;;;2.50;;
68910;SDS011;55953;51.650;-0.522;2023-08-06T07:14:24;5.10;;;2.10;;
68910;SDS011;55953;51.650;-0.522;2023-08-06T07:19:21;4.10;;;2.20;;
68910;SDS011;55953;51.650;-0.522;2023-08-06T07:21:49;7.10;;;2.50;;
68910;SDS011;55953;51.650;-0.522;2023-08-06T07:24:16;5.00;;;2.30;;
68910;SDS011;55953;51.650;-0.522;2023-08-06T07:26:44;4.80;;;1.90;;
68910;SDS011;55953;51.650;-0.522;2023-08-06T07:29:12;6.00;;;2.00;;
68910;SDS011;55953;51.650;-0.522;2023-08-06T07:31:40;4.00;;;2.00;;
68910;SDS011;55953;51.650;-0.522;2023-08-06T07:34:07;4.80;;;1.80;;
68910;SDS011;55953;51.650;-0.522;2023-08-06T07:36:35;3.30;;;1.60;;
68910;SDS011;55953;51.650;-0.522;2023-08-06T07:39:03;4.10;;;2.00;;
68910;SDS011;55953;51.650;-0.522;2023-08-06T07:41:35;5.70;;;2.00;;
68910;SDS011;55953;51.650;-0.522;2023-08-06T07:44:02;4.10;;;2.00;;
68910;SDS011;55953;51.650;-0.522;2023-08-06T07:46:30;4.50;;;2.20;;
68910;SDS011;55953;51.650;-0.522;2023-08-06T07:48:59;4.50;;;2.00;;
68910;SDS011;55953;51.650;-0.522;2023-08-06T07:51:27;4.00;;;1.90;;
68910;SDS011;55953;51.650;-0.522;2023-08-06T07:53:54;4.70;;;2.10;;
68910;SDS011;55953;51.650;-0.522;2023-08-06T07:56:22;5.40;;;1.80;;
68910;SDS011;55953;51.650;-0.522;2023-08-06T07:58:50;4.30;;;1.90;;
68910;SDS011;55953;51.650;-0.522;2023-08-06T08:01:18;5.20;;;2.10;;
68910;SDS011;55953;51.650;-0.522;2023-08-06T08:03:45;3.70;;;1.70;;
68910;SDS011;55953;51.650;-0.522;2023-08-06T08:06:13;5.00;;;1.90;;
68910;SDS011;55953;51.650;-0.522;2023-08-06T08:08:41;3.60;;;1.60;;
68910;SDS011;55953;51.650;-0.522;2023-08-06T08:11:09;4.30;;;2.00;;
68910;SDS011;55953;51.650;-0.522;2023-08-06T08:13:37;4.80;;;1.90;;
68910;SDS011;55953;51.650;-0.522;2023-08-06T08:16:04;3.10;;;1.60;;
68910;SDS011;55953;51.650;-0.522;2023-08-06T08:18:33;3.50;;;2.10;;
68910;SDS011;55953;51.650;-0.522;2023-08-06T08:21:00;4.80;;;1.90;;
68910;SDS011;55953;51.650;-0.522;2023-08-06T08:23:28;3.50;;;1.80;;
68910;SDS011;55953;51.650;-0.522;2023-08-06T08:25:56;5.50;;;1.80;;
68910;SDS011;55953;51.650;-0.522;2023-08-06T08:28:24;4.70;;;2.00;;
68910;SDS011;55953;51.650;-0.522;2023-08-06T08:30:51;3.40;;;1.70;;
68910;SDS011;55953;51.650;-0.522;2023-08-06T08:33:22;4.00;;;1.80;;
68910;SDS011;55953;51.650;-0.522;2023-08-06T08:35:50;4.30;;;1.80;;
68910;SDS011;55953;51.650;-0.522;2023-08-06T08:38:17;3.60;;;1.80;;
68910;SDS011;55953;51.650;-0.522;2023-08-06T08:40:46;4.40;;;1.80;;
68910;SDS011;55953;51.650;-0.522;2023-08-06T08:43:23;3.70;;;1.80;;
68910;SDS011;55953;51.650;-0.522;2023-08-06T08:45:52;5.10;;;1.80;;
68910;SDS011;55953;51.650;-0.522;2023-08-06T08:48:27;3.60;;;1.70;;
68910;SDS011;55953;51.650;-0.522;2023-08-06T08:50:56;3.30;;;1.60;;
68910;SDS011;55953;51.650;-0.522;2023-08-06T08:53:24;3.50;;;1.90;;
68910;SDS011;55953;51.650;-0.522;2023-08-06T08:55:53;3.30;;;1.70;;
68910;SDS011;55953;51.650;-0.522;2023-08-06T08:58:22;4.80;;;2.00;;
68910;SDS011;55953;51.650;-0.522;2023-08-06T09:00:50;5.30;;;1.70;;
68910;SDS011;55953;51.650;-0.522;2023-08-06T09:03:20;3.50;;;1.60;;
68910;SDS011;55953;51.650;-0.522;2023-08-06T09:05:49;3.30;;;1.70;;
68910;SDS011;55953;51.650;-0.522;2023-08-06T09:08:26;6.60;;;1.90;;
68910;SDS011;55953;51.650;-0.522;2023-08-06T09:10:56;3.50;;;1.70;;
68910;SDS011;55953;51.650;-0.522;2023-08-06T09:13:25;4.40;;;1.90;;
68910;SDS011;55953;51.650;-0.522;2023-08-06T09:15:53;4.60;;;2.00;;
68910;SDS011;55953;51.650;-0.522;2023-08-06T09:18:29;4.70;;;1.80;;
68910;SDS011;55953;51.650;-0.522;2023-08-06T09:20:58;4.10;;;2.00;;
68910;SDS011;55953;51.650;-0.522;2023-08-06T09:23:30;6.80;;;2.00;;
68910;SDS011;55953;51.650;-0.522;2023-08-06T09:25:59;3.60;;;1.70;;
68910;SDS011;55953;51.650;-0.522;2023-08-06T09:28:37;4.30;;;1.80;;
68910;SDS011;55953;51.650;-0.522;2023-08-06T09:31:10;3.70;;;2.00;;
68910;SDS011;55953;51.650;-0.522;2023-08-06T09:33:38;4.60;;;1.80;;
68910;SDS011;55953;51.650;-0.522;2023-08-06T09:36:10;6.00;;;1.90;;
68910;SDS011;55953;51.650;-0.522;2023-08-06T09:38:39;4.00;;;2.20;;
68910;SDS011;55953;51.650;-0.522;2023-08-06T09:41:08;4.80;;;1.70;;
68910;SDS011;55953;51.650;-0.522;2023-08-06T09:43:42;3.00;;;1.70;;
68910;SDS011;55953;51.650;-0.522;2023-08-06T09:46:14;4.60;;;1.70;;
68910;SDS011;55953;51.650;-0.522;2023-08-06T09:48:45;3.00;;;1.70;;
68910;SDS011;55953;51.650;-0.522;2023-08-06T09:51:14;3.40;;;1.60;;
68910;SDS011;55953;51.650;-0.522;2023-08-06T09:53:43;3.70;;;1.70;;
68910;SDS011;55953;51.650;-0.522;2023-08-06T09:56:13;4.60;;;1.70;;
68910;SDS011;55953;51.650;-0.522;2023-08-06T09:58:44;5.50;;;1.90;;
68910;SDS011;55953;51.650;-0.522;2023-08-06T10:03:47;4.20;;;1.50;;
68910;SDS011;55953;51.650;-0.522;2023-08-06T10:06:15;4.30;;;1.50;;
68910;SDS011;55953;51.650;-0.522;2023-08-06T10:08:43;3.90;;;1.60;;
68910;SDS011;55953;51.650;-0.522;2023-08-06T10:11:13;4.30;;;1.80;;
68910;SDS011;55953;51.650;-0.522;2023-08-06T10:13:43;2.80;;;1.60;;
68910;SDS011;55953;51.650;-0.522;2023-08-06T10:16:12;3.40;;;1.70;;
68910;SDS011;55953;51.650;-0.522;2023-08-06T10:18:40;4.10;;;1.60;;
68910;SDS011;55953;51.650;-0.522;2023-08-06T10:21:09;4.10;;;2.20;;
68910;SDS011;55953;51.650;-0.522;2023-08-06T10:23:40;2.70;;;1.50;;
68910;SDS011;55953;51.650;-0.522;2023-08-06T10:26:08;4.60;;;1.80;;
68910;SDS011;55953;51.650;-0.522;2023-08-06T10:28:37;4.10;;;1.80;;
68910;SDS011;55953;51.650;-0.522;2023-08-06T10:31:06;4.50;;;1.70;;
68910;SDS011;55953;51.650;-0.522;2023-08-06T10:33:45;2.20;;;1.40;;
68910;SDS011;55953;51.650;-0.522;2023-08-06T10:36:15;3.50;;;1.60;;
68910;SDS011;55953;51.650;-0.522;2023-08-06T10:38:49;3.80;;;1.70;;
68910;SDS011;55953;51.650;-0.522;2023-08-06T10:41:28;3.40;;;1.60;;
68910;SDS011;55953;51.650;-0.522;2023-08-06T10:44:06;6.30;;;1.70;;
68910;SDS011;55953;51.650;-0.522;2023-08-06T10:46:36;3.20;;;1.60;;
68910;SDS011;55953;51.650;-0.522;2023-08-06T10:49:05;3.10;;;1.50;;
68910;SDS011;55953;51.650;-0.522;2023-08-06T10:51:35;3.60;;;1.50;;
68910;SDS011;55953;51.650;-0.522;2023-08-06T10:54:04;4.00;;;1.80;;
68910;SDS011;55953;51.650;-0.522;2023-08-06T10:56:39;5.10;;;1.40;;
68910;SDS011;55953;51.650;-0.522;2023-08-06T10:59:09;4.20;;;1.80;;
68910;SDS011;55953;51.650;-0.522;2023-08-06T11:01:38;5.30;;;1.70;;
68910;SDS011;55953;51.650;-0.522;2023-08-06T11:04:06;4.60;;;1.80;;
68910;SDS011;55953;51.650;-0.522;2023-08-06T11:06:34;4.40;;;1.60;;
68910;SDS011;55953;51.650;-0.522;2023-08-06T11:09:02;3.10;;;1.50;;
68910;SDS011;55953;51.650;-0.522;2023-08-06T11:11:30;6.80;;;2.00;;
68910;SDS011;55953;51.650;-0.522;2023-08-06T11:13:58;3.00;;;1.50;;
68910;SDS011;55953;51.650;-0.522;2023-08-06T11:16:26;3.40;;;1.60;;
68910;SDS011;55953;51.650;-0.522;2023-08-06T11:18:54;4.70;;;1.70;;
68910;SDS011;55953;51.650;-0.522;2023-08-06T11:21:24;2.70;;;1.70;;
68910;SDS011;55953;51.650;-0.522;2023-08-06T11:23:53;4.40;;;1.70;;
68910;SDS011;55953;51.650;-0.522;2023-08-06T11:26:22;5.80;;;2.00;;
68910;SDS011;55953;51.650;-0.522;2023-08-06T11:28:51;3.00;;;1.60;;
68910;SDS011;55953;51.650;-0.522;2023-08-06T11:31:22;3.60;;;1.60;;
68910;SDS011;55953;51.650;-0.522;2023-08-06T11:33:51;3.70;;;1.50;;
68910;SDS011;55953;51.650;-0.522;2023-08-06T11:36:34;3.80;;;1.70;;
68910;SDS011;55953;51.650;-0.522;2023-08-06T11:39:08;3.50;;;1.80;;
68910;SDS011;55953;51.650;-0.522;2023-08-06T11:41:37;2.80;;;1.50;;
68910;SDS011;55953;51.650;-0.522;2023-08-06T11:44:05;3.40;;;1.70;;
68910;SDS011;55953;51.650;-0.522;2023-08-06T11:46:53;3.20;;;1.50;;
68910;SDS011;55953;51.650;-0.522;2023-08-06T11:49:40;2.70;;;1.50;;
68910;SDS011;55953;51.650;-0.522;2023-08-06T11:52:19;3.30;;;1.50;;
68910;SDS011;55953;51.650;-0.522;2023-08-06T11:55:04;4.70;;;1.40;;
68910;SDS011;55953;51.650;-0.522;2023-08-06T11:57:39;4.00;;;1.40;;
68910;SDS011;55953;51.650;-0.522;2023-08-06T12:00:12;3.40;;;1.50;;
68910;SDS011;55953;51.650;-0.522;2023-08-06T12:02:45;2.40;;;1.20;;
68910;SDS011;55953;51.650;-0.522;2023-08-06T12:05:15;4.40;;;1.50;;
68910;SDS011;55953;51.650;-0.522;2023-08-06T12:08:03;3.10;;;1.80;;
68910;SDS011;55953;51.650;-0.522;2023-08-06T12:10:32;2.70;;;1.40;;
68910;SDS011;55953;51.650;-0.522;2023-08-06T12:13:00;3.80;;;1.40;;
68910;SDS011;55953;51.650;-0.522;2023-08-06T12:15:28;2.20;;;1.40;;
68910;SDS011;55953;51.650;-0.522;2023-08-06T12:18:00;2.80;;;1.50;;
68910;SDS011;55953;51.650;-0.522;2023-08-06T12:20:28;3.70;;;1.50;;
68910;SDS011;55953;51.650;-0.522;2023-08-06T12:22:56;3.20;;;1.60;;
68910;SDS011;55953;51.650;-0.522;2023-08-06T12:25:25;2.00;;;1.20;;
68910;SDS011;55953;51.650;-0.522;2023-08-06T12:27:53;2.20;;;1.10;;
68910;SDS011;55953;51.650;-0.522;2023-08-06T12:30:21;2.90;;;1.30;;
68910;SDS011;55953;51.650;-0.522;2023-08-06T12:32:48;4.00;;;1.50;;
68910;SDS011;55953;51.650;-0.522;2023-08-06T12:35:16;2.50;;;1.20;;
68910;SDS011;55953;51.650;-0.522;2023-08-06T12:37:44;3.40;;;1.40;;
68910;SDS011;55953;51.650;-0.522;2023-08-06T12:40:13;3.00;;;1.40;;
68910;SDS011;55953;51.650;-0.522;2023-08-06T12:42:43;4.40;;;1.50;;
68910;SDS011;55953;51.650;-0.522;2023-08-06T12:45:11;3.50;;;1.50;;
68910;SDS011;55953;51.650;-0.522;2023-08-06T12:47:39;2.40;;;1.40;;
68910;SDS011;55953;51.650;-0.522;2023-08-06T12:50:07;2.50;;;1.40;;
68910;SDS011;55953;51.650;-0.522;2023-08-06T12:52:35;1.90;;;1.40;;
68910;SDS011;55953;51.650;-0.522;2023-08-06T12:55:03;2.10;;;1.30;;
68910;SDS011;55953;51.650;-0.522;2023-08-06T12:57:31;2.20;;;1.20;;
68910;SDS011;55953;51.650;-0.522;2023-08-06T13:00:21;2.30;;;1.30;;
68910;SDS011;55953;51.650;-0.522;2023-08-06T13:02:48;1.90;;;1.30;;
68910;SDS011;55953;51.650;-0.522;2023-08-06T13:05:16;3.60;;;1.20;;
68910;SDS011;55953;51.650;-0.522;2023-08-06T13:07:44;1.70;;;1.00;;
68910;SDS011;55953;51.650;-0.522;2023-08-06T13:10:12;1.70;;;1.10;;
68910;SDS011;55953;51.650;-0.522;2023-08-06T13:12:40;2.00;;;1.20;;
68910;SDS011;55953;51.650;-0.522;2023-08-06T13:15:08;2.90;;;1.20;;
68910;SDS011;55953;51.650;-0.522;2023-08-06T13:17:36;2.20;;;1.10;;
68910;SDS011;55953;51.650;-0.522;2023-08-06T13:20:04;1.20;;;0.90;;
68910;SDS011;55953;51.650;-0.522;2023-08-06T13:22:32;1.60;;;1.00;;
68910;SDS011;55953;51.650;-0.522;2023-08-06T13:25:00;1.20;;;0.90;;
68910;SDS011;55953;51.650;-0.522;2023-08-06T13:27:28;2.60;;;1.00;;
68910;SDS011;55953;51.650;-0.522;2023-08-06T13:29:56;1.90;;;1.00;;
68910;SDS011;55953;51.650;-0.522;2023-08-06T13:32:23;3.30;;;1.10;;
68910;SDS011;55953;51.650;-0.522;2023-08-06T13:34:51;2.60;;;1.20;;
68910;SDS011;55953;51.650;-0.522;2023-08-06T13:37:19;2.50;;;1.10;;
68910;SDS011;55953;51.650;-0.522;2023-08-06T13:39:47;3.40;;;1.40;;
68910;SDS011;55953;51.650;-0.522;2023-08-06T13:42:15;2.50;;;1.30;;
68910;SDS011;55953;51.650;-0.522;2023-08-06T13:44:42;2.20;;;1.10;;
68910;SDS011;55953;51.650;-0.522;2023-08-06T13:47:10;3.40;;;1.20;;
68910;SDS011;55953;51.650;-0.522;2023-08-06T13:49:38;1.20;;;0.90;;
68910;SDS011;55953;51.650;-0.522;2023-08-06T13:52:06;2.30;;;1.10;;
68910;SDS011;55953;51.650;-0.522;2023-08-06T13:54:48;2.00;;;1.10;;
68910;SDS011;55953;51.650;-0.522;2023-08-06T13:57:16;2.00;;;1.10;;
68910;SDS011;55953;51.650;-0.522;2023-08-06T13:59:45;1.80;;;1.20;;
68910;SDS011;55953;51.650;-0.522;2023-08-06T14:02:13;2.10;;;0.90;;
68910;SDS011;55953;51.650;-0.522;2023-08-06T14:04:41;1.50;;;0.90;;
68910;SDS011;55953;51.650;-0.522;2023-08-06T14:07:08;1.60;;;0.90;;
68910;SDS011;55953;51.650;-0.522;2023-08-06T14:09:36;1.30;;;0.90;;
68910;SDS011;55953;51.650;-0.522;2023-08-06T14:12:04;2.20;;;1.10;;
68910;SDS011;55953;51.650;-0.522;2023-08-06T14:14:32;2.10;;;1.00;;
68910;SDS011;55953;51.650;-0.522;2023-08-06T14:17:01;2.00;;;1.10;;
68910;SDS011;55953;51.650;-0.522;2023-08-06T14:19:29;2.10;;;1.10;;
68910;SDS011;55953;51.650;-0.522;2023-08-06T14:21:57;2.10;;;1.10;;
68910;SDS011;55953;51.650;-0.522;2023-08-06T14:24:25;1.80;;;1.10;;
68910;SDS011;55953;51.650;-0.522;2023-08-06T14:26:53;2.10;;;1.00;;
68910;SDS011;55953;51.650;-0.522;2023-08-06T14:29:21;2.20;;;1.00;;
68910;SDS011;55953;51.650;-0.522;2023-08-06T14:31:49;2.20;;;1.00;;
68910;SDS011;55953;51.650;-0.522;2023-08-06T14:34:18;2.90;;;1.10;;
68910;SDS011;55953;51.650;-0.522;2023-08-06T14:36:46;1.00;;;0.80;;
68910;SDS011;55953;51.650;-0.522;2023-08-06T14:39:14;1.80;;;1.10;;
68910;SDS011;55953;51.650;-0.522;2023-08-06T14:41:41;1.60;;;1.10;;
68910;SDS011;55953;51.650;-0.522;2023-08-06T14:44:09;1.80;;;0.90;;
68910;SDS011;55953;51.650;-0.522;2023-08-06T14:46:37;2.40;;;1.20;;
68910;SDS011;55953;51.650;-0.522;2023-08-06T14:49:05;1.40;;;0.90;;
68910;SDS011;55953;51.650;-0.522;2023-08-06T14:51:33;2.50;;;0.90;;
68910;SDS011;55953;51.650;-0.522;2023-08-06T14:54:02;1.60;;;1.00;;